sensor_id;sensor_type;location;lat;lon;timestamp;P1;durP1;ratioP1;P2;durP2;ratioP2
27293;SDS011;14785;52.556;13.430;2023-11-19T00:01:31;62.08;;;58.03;;
27293;SDS011;14785;52.556;13.430;2023-11-19T00:03:57;81.47;;;76.50;;
27293;SDS011;14785;52.556;13.430;2023-11-19T00:06:23;103.00;;;96.60;;
27293;SDS011;14785;52.556;13.430;2023-11-19T00:08:49;52.67;;;48.92;;
27293;SDS011;14785;52.556;13.430;2023-11-19T00:11:15;77.60;;;72.70;;
27293;SDS011;14785;52.556;13.430;2023-11-19T00:13:40;66.13;;;61.47;;
27293;SDS011;14785;52.556;13.430;2023-11-19T00:16:06;73.33;;;68.67;;
27293;SDS011;14785;52.556;13.430;2023-11-19T00:18:33;51.30;;;47.35;;
27293;SDS011;14785;52.556;13.430;2023-11-19T00:20:58;61.37;;;57.23;;
27293;SDS011;14785;52.556;13.430;2023-11-19T00:23:23;85.20;;;79.83;;
27293;SDS011;14785;52.556;13.430;2023-11-19T00:25:49;70.28;;;65.78;;
27293;SDS011;14785;52.556;13.430;2023-11-19T00:28:15;78.73;;;73.60;;
27293;SDS011;14785;52.556;13.430;2023-11-19T00:30:40;81.43;;;76.20;;
27293;SDS011;14785;52.556;13.430;2023-11-19T00:33:06;94.97;;;89.03;;
27293;SDS011;14785;52.556;13.430;2023-11-19T00:35:31;83.30;;;78.00;;
27293;SDS011;14785;52.556;13.430;2023-11-19T00:37:57;81.45;;;76.53;;
27293;SDS011;14785;52.556;13.430;2023-11-19T00:40:23;111.97;;;105.03;;
27293;SDS011;14785;52.556;13.430;2023-11-19T00:42:49;76.87;;;72.07;;
27293;SDS011;14785;52.556;13.430;2023-11-19T00:45:15;90.75;;;85.03;;
27293;SDS011;14785;52.556;13.430;2023-11-19T00:47:41;66.37;;;61.93;;
27293;SDS011;14785;52.556;13.430;2023-11-19T00:50:07;85.53;;;80.23;;
27293;SDS011;14785;52.556;13.430;2023-11-19T00:52:36;84.35;;;79.30;;
27293;SDS011;14785;52.556;13.430;2023-11-19T00:55:02;69.72;;;65.15;;
27293;SDS011;14785;52.556;13.430;2023-11-19T00:57:28;48.95;;;45.63;;
27293;SDS011;14785;52.556;13.430;2023-11-19T00:59:53;51.90;;;48.30;;
27293;SDS011;14785;52.556;13.430;2023-11-19T01:02:18;53.30;;;49.53;;
27293;SDS011;14785;52.556;13.430;2023-11-19T01:04:44;40.40;;;37.43;;
27293;SDS011;14785;52.556;13.430;2023-11-19T01:07:10;81.35;;;76.28;;
27293;SDS011;14785;52.556;13.430;2023-11-19T01:09:38;62.67;;;58.47;;
27293;SDS011;14785;52.556;13.430;2023-11-19T01:12:04;60.53;;;56.57;;
27293;SDS011;14785;52.556;13.430;2023-11-19T01:14:30;74.90;;;70.15;;
27293;SDS011;14785;52.556;13.430;2023-11-19T01:16:56;64.67;;;60.77;;
27293;SDS011;14785;52.556;13.430;2023-11-19T01:19:22;59.27;;;55.13;;
27293;SDS011;14785;52.556;13.430;2023-11-19T01:21:48;46.00;;;42.72;;
27293;SDS011;14785;52.556;13.430;2023-11-19T01:24:13;73.53;;;69.03;;
27293;SDS011;14785;52.556;13.430;2023-11-19T01:26:39;59.03;;;55.30;;
27293;SDS011;14785;52.556;13.430;2023-11-19T01:29:10;30.83;;;28.40;;
27293;SDS011;14785;52.556;13.430;2023-11-19T01:31:39;38.65;;;36.13;;
27293;SDS011;14785;52.556;13.430;2023-11-19T01:34:09;28.10;;;26.05;;
27293;SDS011;14785;52.556;13.430;2023-11-19T01:36:36;36.38;;;33.78;;
27293;SDS011;14785;52.556;13.430;2023-11-19T01:39:02;29.33;;;27.17;;
27293;SDS011;14785;52.556;13.430;2023-11-19T01:41:29;40.45;;;37.75;;
27293;SDS011;14785;52.556;13.430;2023-11-19T01:43:54;35.80;;;33.30;;
27293;SDS011;14785;52.556;13.430;2023-11-19T01:46:20;55.63;;;52.07;;
27293;SDS011;14785;52.556;13.430;2023-11-19T01:48:46;43.50;;;40.43;;
27293;SDS011;14785;52.556;13.430;2023-11-19T01:51:12;37.13;;;34.35;;
27293;SDS011;14785;52.556;13.430;2023-11-19T01:53:41;36.42;;;33.85;;
27293;SDS011;14785;52.556;13.430;2023-11-19T01:56:08;83.15;;;78.05;;
27293;SDS011;14785;52.556;13.430;2023-11-19T01:58:37;60.20;;;56.03;;
27293;SDS011;14785;52.556;13.430;2023-11-19T02:01:04;46.20;;;43.25;;
27293;SDS011;14785;52.556;13.430;2023-11-19T02:03:31;42.05;;;39.22;;
27293;SDS011;14785;52.556;13.430;2023-11-19T02:05:57;40.45;;;37.72;;
27293;SDS011;14785;52.556;13.430;2023-11-19T02:08:24;32.80;;;30.55;;
27293;SDS011;14785;52.556;13.430;2023-11-19T02:10:49;28.80;;;26.53;;
27293;SDS011;14785;52.556;13.430;2023-11-19T02:13:14;53.53;;;49.67;;
27293;SDS011;14785;52.556;13.430;2023-11-19T02:15:41;44.95;;;41.95;;
27293;SDS011;14785;52.556;13.430;2023-11-19T02:20:45;42.10;;;39.22;;
27293;SDS011;14785;52.556;13.430;2023-11-19T02:23:11;61.10;;;57.15;;
27293;SDS011;14785;52.556;13.430;2023-11-19T02:25:38;130.57;;;123.22;;
27293;SDS011;14785;52.556;13.430;2023-11-19T02:28:05;65.93;;;61.67;;
27293;SDS011;14785;52.556;13.430;2023-11-19T02:30:31;62.60;;;58.65;;
27293;SDS011;14785;52.556;13.430;2023-11-19T02:32:57;54.07;;;50.67;;
27293;SDS011;14785;52.556;13.430;2023-11-19T02:35:25;101.40;;;95.45;;
27293;SDS011;14785;52.556;13.430;2023-11-19T02:37:51;42.03;;;39.30;;
27293;SDS011;14785;52.556;13.430;2023-11-19T02:40:17;66.57;;;62.60;;
27293;SDS011;14785;52.556;13.430;2023-11-19T02:42:42;52.67;;;49.30;;
27293;SDS011;14785;52.556;13.430;2023-11-19T02:45:08;46.33;;;43.00;;
27293;SDS011;14785;52.556;13.430;2023-11-19T02:47:39;32.70;;;30.23;;
27293;SDS011;14785;52.556;13.430;2023-11-19T02:50:08;81.28;;;76.38;;
27293;SDS011;14785;52.556;13.430;2023-11-19T02:52:42;67.22;;;63.17;;
27293;SDS011;14785;52.556;13.430;2023-11-19T02:55:10;57.53;;;53.85;;
27293;SDS011;14785;52.556;13.430;2023-11-19T02:57:38;56.92;;;53.45;;
27293;SDS011;14785;52.556;13.430;2023-11-19T03:00:19;42.35;;;39.58;;
27293;SDS011;14785;52.556;13.430;2023-11-19T03:03:06;47.42;;;44.30;;
27293;SDS011;14785;52.556;13.430;2023-11-19T03:05:48;33.10;;;30.85;;
27293;SDS011;14785;52.556;13.430;2023-11-19T03:08:15;35.58;;;33.20;;
27293;SDS011;14785;52.556;13.430;2023-11-19T03:10:41;60.45;;;56.88;;
27293;SDS011;14785;52.556;13.430;2023-11-19T03:13:10;50.50;;;47.13;;
27293;SDS011;14785;52.556;13.430;2023-11-19T03:15:38;46.05;;;43.10;;
27293;SDS011;14785;52.556;13.430;2023-11-19T03:18:03;62.13;;;58.53;;
27293;SDS011;14785;52.556;13.430;2023-11-19T03:20:43;69.93;;;65.97;;
27293;SDS011;14785;52.556;13.430;2023-11-19T03:23:08;58.37;;;54.87;;
27293;SDS011;14785;52.556;13.430;2023-11-19T03:25:33;63.30;;;59.80;;
27293;SDS011;14785;52.556;13.430;2023-11-19T03:27:59;67.78;;;63.85;;
27293;SDS011;14785;52.556;13.430;2023-11-19T03:30:27;34.42;;;32.22;;
27293;SDS011;14785;52.556;13.430;2023-11-19T03:32:53;56.90;;;53.53;;
27293;SDS011;14785;52.556;13.430;2023-11-19T03:35:19;121.68;;;112.25;;
27293;SDS011;14785;52.556;13.430;2023-11-19T03:37:45;175.27;;;165.80;;
27293;SDS011;14785;52.556;13.430;2023-11-19T03:40:11;52.20;;;48.97;;
27293;SDS011;14785;52.556;13.430;2023-11-19T03:42:37;35.27;;;32.87;;
27293;SDS011;14785;52.556;13.430;2023-11-19T03:45:04;61.53;;;57.60;;
27293;SDS011;14785;52.556;13.430;2023-11-19T03:47:36;67.25;;;63.03;;
27293;SDS011;14785;52.556;13.430;2023-11-19T03:50:02;69.07;;;64.53;;
27293;SDS011;14785;52.556;13.430;2023-11-19T03:52:29;48.00;;;44.60;;
27293;SDS011;14785;52.556;13.430;2023-11-19T03:54:54;85.80;;;80.13;;
27293;SDS011;14785;52.556;13.430;2023-11-19T03:57:20;51.45;;;48.00;;
27293;SDS011;14785;52.556;13.430;2023-11-19T03:59:46;172.52;;;162.57;;
27293;SDS011;14785;52.556;13.430;2023-11-19T04:02:11;85.53;;;80.43;;
27293;SDS011;14785;52.556;13.430;2023-11-19T04:04:37;85.87;;;80.67;;
27293;SDS011;14785;52.556;13.430;2023-11-19T04:09:29;215.63;;;203.60;;
27293;SDS011;14785;52.556;13.430;2023-11-19T04:11:55;294.83;;;278.30;;
27293;SDS011;14785;52.556;13.430;2023-11-19T04:14:21;136.77;;;128.60;;
27293;SDS011;14785;52.556;13.430;2023-11-19T04:16:46;109.07;;;102.50;;
27293;SDS011;14785;52.556;13.430;2023-11-19T04:19:12;127.77;;;119.97;;
27293;SDS011;14785;52.556;13.430;2023-11-19T04:21:40;67.17;;;62.37;;
27293;SDS011;14785;52.556;13.430;2023-11-19T04:24:07;54.00;;;49.97;;
27293;SDS011;14785;52.556;13.430;2023-11-19T04:28:59;63.97;;;59.75;;
27293;SDS011;14785;52.556;13.430;2023-11-19T04:31:28;117.13;;;109.75;;
27293;SDS011;14785;52.556;13.430;2023-11-19T04:33:56;154.10;;;145.63;;
27293;SDS011;14785;52.556;13.430;2023-11-19T04:36:21;131.87;;;124.30;;
27293;SDS011;14785;52.556;13.430;2023-11-19T04:38:49;181.13;;;171.15;;
27293;SDS011;14785;52.556;13.430;2023-11-19T04:41:14;143.10;;;134.83;;
27293;SDS011;14785;52.556;13.430;2023-11-19T04:43:40;262.47;;;248.17;;
27293;SDS011;14785;52.556;13.430;2023-11-19T04:46:05;133.87;;;125.83;;
27293;SDS011;14785;52.556;13.430;2023-11-19T04:48:31;87.68;;;81.65;;
27293;SDS011;14785;52.556;13.430;2023-11-19T04:50:56;82.13;;;76.37;;
27293;SDS011;14785;52.556;13.430;2023-11-19T04:53:22;98.33;;;91.67;;
27293;SDS011;14785;52.556;13.430;2023-11-19T04:55:47;221.10;;;208.53;;
27293;SDS011;14785;52.556;13.430;2023-11-19T04:58:12;108.97;;;101.57;;
27293;SDS011;14785;52.556;13.430;2023-11-19T05:00:38;188.73;;;177.83;;
27293;SDS011;14785;52.556;13.430;2023-11-19T05:03:03;135.87;;;127.23;;
27293;SDS011;14785;52.556;13.430;2023-11-19T05:05:29;63.17;;;58.30;;
27293;SDS011;14785;52.556;13.430;2023-11-19T05:07:54;113.60;;;105.97;;
27293;SDS011;14785;52.556;13.430;2023-11-19T05:10:20;195.87;;;184.50;;
27293;SDS011;14785;52.556;13.430;2023-11-19T05:12:45;90.63;;;84.47;;
27293;SDS011;14785;52.556;13.430;2023-11-19T05:15:11;84.00;;;78.10;;
27293;SDS011;14785;52.556;13.430;2023-11-19T05:17:37;185.57;;;174.55;;
27293;SDS011;14785;52.556;13.430;2023-11-19T05:20:04;108.15;;;100.53;;
27293;SDS011;14785;52.556;13.430;2023-11-19T05:22:30;261.40;;;246.52;;
27293;SDS011;14785;52.556;13.430;2023-11-19T05:24:55;338.50;;;320.33;;
27293;SDS011;14785;52.556;13.430;2023-11-19T05:27:21;232.03;;;218.73;;
27293;SDS011;14785;52.556;13.430;2023-11-19T05:29:47;129.07;;;120.68;;
27293;SDS011;14785;52.556;13.430;2023-11-19T05:32:12;168.67;;;157.60;;
27293;SDS011;14785;52.556;13.430;2023-11-19T05:34:37;80.80;;;74.87;;
27293;SDS011;14785;52.556;13.430;2023-11-19T05:37:03;123.47;;;115.07;;
27293;SDS011;14785;52.556;13.430;2023-11-19T05:39:30;207.45;;;195.40;;
27293;SDS011;14785;52.556;13.430;2023-11-19T05:41:56;293.43;;;276.23;;
27293;SDS011;14785;52.556;13.430;2023-11-19T05:44:21;160.23;;;150.30;;
27293;SDS011;14785;52.556;13.430;2023-11-19T05:46:46;207.43;;;194.87;;
27293;SDS011;14785;52.556;13.430;2023-11-19T05:49:12;116.87;;;108.87;;
27293;SDS011;14785;52.556;13.430;2023-11-19T05:51:38;94.53;;;87.57;;
27293;SDS011;14785;52.556;13.430;2023-11-19T05:54:06;113.93;;;106.25;;
27293;SDS011;14785;52.556;13.430;2023-11-19T05:56:33;171.00;;;160.50;;
27293;SDS011;14785;52.556;13.430;2023-11-19T05:58:59;89.33;;;82.97;;
27293;SDS011;14785;52.556;13.430;2023-11-19T06:01:32;149.85;;;140.20;;
27293;SDS011;14785;52.556;13.430;2023-11-19T06:03:59;104.75;;;97.57;;
27293;SDS011;14785;52.556;13.430;2023-11-19T06:06:25;74.05;;;68.57;;
27293;SDS011;14785;52.556;13.430;2023-11-19T06:08:51;59.72;;;55.13;;
27293;SDS011;14785;52.556;13.430;2023-11-19T06:11:17;75.03;;;69.63;;
27293;SDS011;14785;52.556;13.430;2023-11-19T06:13:45;73.60;;;67.43;;
27293;SDS011;14785;52.556;13.430;2023-11-19T06:16:12;78.22;;;72.55;;
27293;SDS011;14785;52.556;13.430;2023-11-19T06:18:38;193.73;;;182.48;;
27293;SDS011;14785;52.556;13.430;2023-11-19T06:21:04;219.80;;;207.57;;
27293;SDS011;14785;52.556;13.430;2023-11-19T06:23:29;239.87;;;226.57;;
27293;SDS011;14785;52.556;13.430;2023-11-19T06:25:55;274.60;;;259.77;;
27293;SDS011;14785;52.556;13.430;2023-11-19T06:28:20;304.80;;;288.27;;
27293;SDS011;14785;52.556;13.430;2023-11-19T06:30:45;335.23;;;317.73;;
27293;SDS011;14785;52.556;13.430;2023-11-19T06:33:14;276.00;;;261.17;;
27293;SDS011;14785;52.556;13.430;2023-11-19T06:35:40;278.50;;;263.55;;
27293;SDS011;14785;52.556;13.430;2023-11-19T06:38:05;307.33;;;290.88;;
27293;SDS011;14785;52.556;13.430;2023-11-19T06:40:34;246.20;;;232.70;;
27293;SDS011;14785;52.556;13.430;2023-11-19T06:43:03;316.13;;;299.30;;
27293;SDS011;14785;52.556;13.430;2023-11-19T06:45:30;277.92;;;263.10;;
27293;SDS011;14785;52.556;13.430;2023-11-19T06:47:56;266.30;;;251.98;;
27293;SDS011;14785;52.556;13.430;2023-11-19T06:50:21;241.63;;;228.40;;
27293;SDS011;14785;52.556;13.430;2023-11-19T06:52:46;235.80;;;222.50;;
27293;SDS011;14785;52.556;13.430;2023-11-19T06:55:12;224.40;;;211.90;;
27293;SDS011;14785;52.556;13.430;2023-11-19T06:57:37;224.23;;;211.67;;
27293;SDS011;14785;52.556;13.430;2023-11-19T07:00:03;150.83;;;141.90;;
27293;SDS011;14785;52.556;13.430;2023-11-19T07:02:30;135.57;;;127.53;;
27293;SDS011;14785;52.556;13.430;2023-11-19T07:04:56;59.33;;;55.30;;
27293;SDS011;14785;52.556;13.430;2023-11-19T07:07:21;45.03;;;41.43;;
27293;SDS011;14785;52.556;13.430;2023-11-19T07:09:47;61.20;;;56.83;;
27293;SDS011;14785;52.556;13.430;2023-11-19T07:12:13;55.93;;;51.70;;
27293;SDS011;14785;52.556;13.430;2023-11-19T07:14:39;57.97;;;53.65;;
27293;SDS011;14785;52.556;13.430;2023-11-19T07:17:05;88.20;;;82.07;;
27293;SDS011;14785;52.556;13.430;2023-11-19T07:19:31;215.93;;;204.00;;
27293;SDS011;14785;52.556;13.430;2023-11-19T07:21:56;162.43;;;153.03;;
27293;SDS011;14785;52.556;13.430;2023-11-19T07:24:21;155.70;;;146.77;;
27293;SDS011;14785;52.556;13.430;2023-11-19T07:26:47;80.80;;;75.40;;
27293;SDS011;14785;52.556;13.430;2023-11-19T07:29:13;66.47;;;62.20;;
27293;SDS011;14785;52.556;13.430;2023-11-19T07:31:41;64.13;;;59.50;;
27293;SDS011;14785;52.556;13.430;2023-11-19T07:34:09;60.33;;;55.95;;
27293;SDS011;14785;52.556;13.430;2023-11-19T07:36:35;53.03;;;49.10;;
27293;SDS011;14785;52.556;13.430;2023-11-19T07:39:01;49.17;;;45.20;;
27293;SDS011;14785;52.556;13.430;2023-11-19T07:41:26;45.83;;;42.17;;
27293;SDS011;14785;52.556;13.430;2023-11-19T07:43:52;39.50;;;36.17;;
27293;SDS011;14785;52.556;13.430;2023-11-19T07:46:17;44.43;;;40.63;;
27293;SDS011;14785;52.556;13.430;2023-11-19T07:48:45;42.05;;;38.70;;
27293;SDS011;14785;52.556;13.430;2023-11-19T07:51:14;44.20;;;40.28;;
27293;SDS011;14785;52.556;13.430;2023-11-19T07:53:40;54.10;;;49.92;;
27293;SDS011;14785;52.556;13.430;2023-11-19T07:56:06;38.55;;;35.28;;
27293;SDS011;14785;52.556;13.430;2023-11-19T08:00:58;62.35;;;57.40;;
27293;SDS011;14785;52.556;13.430;2023-11-19T08:03:23;38.87;;;35.17;;
27293;SDS011;14785;52.556;13.430;2023-11-19T08:05:49;46.63;;;42.80;;
27293;SDS011;14785;52.556;13.430;2023-11-19T08:08:14;38.50;;;35.43;;
27293;SDS011;14785;52.556;13.430;2023-11-19T08:10:40;47.53;;;43.53;;
27293;SDS011;14785;52.556;13.430;2023-11-19T08:13:06;43.85;;;40.55;;
27293;SDS011;14785;52.556;13.430;2023-11-19T08:15:32;60.20;;;55.70;;
27293;SDS011;14785;52.556;13.430;2023-11-19T08:17:58;52.00;;;48.03;;
27293;SDS011;14785;52.556;13.430;2023-11-19T08:20:23;57.60;;;53.17;;
27293;SDS011;14785;52.556;13.430;2023-11-19T08:22:48;55.13;;;51.00;;
27293;SDS011;14785;52.556;13.430;2023-11-19T08:25:14;43.53;;;39.67;;
27293;SDS011;14785;52.556;13.430;2023-11-19T08:27:39;47.83;;;43.93;;
27293;SDS011;14785;52.556;13.430;2023-11-19T08:30:05;34.93;;;32.03;;
27293;SDS011;14785;52.556;13.430;2023-11-19T08:32:31;61.75;;;57.00;;
27293;SDS011;14785;52.556;13.430;2023-11-19T08:34:58;45.28;;;41.67;;
27293;SDS011;14785;52.556;13.430;2023-11-19T08:37:23;41.57;;;38.13;;
27293;SDS011;14785;52.556;13.430;2023-11-19T08:39:49;65.33;;;60.43;;
27293;SDS011;14785;52.556;13.430;2023-11-19T08:42:15;57.03;;;52.72;;
27293;SDS011;14785;52.556;13.430;2023-11-19T08:44:41;39.70;;;36.23;;
27293;SDS011;14785;52.556;13.430;2023-11-19T08:47:09;44.53;;;40.50;;
27293;SDS011;14785;52.556;13.430;2023-11-19T08:49:34;46.58;;;42.50;;
27293;SDS011;14785;52.556;13.430;2023-11-19T08:52:00;35.70;;;32.53;;
27293;SDS011;14785;52.556;13.430;2023-11-19T08:54:26;31.63;;;28.50;;
27293;SDS011;14785;52.556;13.430;2023-11-19T08:56:51;36.70;;;33.30;;
27293;SDS011;14785;52.556;13.430;2023-11-19T08:59:17;44.10;;;39.93;;
27293;SDS011;14785;52.556;13.430;2023-11-19T09:01:44;36.95;;;34.08;;
27293;SDS011;14785;52.556;13.430;2023-11-19T09:04:09;30.30;;;27.48;;
27293;SDS011;14785;52.556;13.430;2023-11-19T09:06:35;35.70;;;32.83;;
27293;SDS011;14785;52.556;13.430;2023-11-19T09:09:01;44.83;;;41.43;;
27293;SDS011;14785;52.556;13.430;2023-11-19T09:11:28;52.50;;;48.63;;
27293;SDS011;14785;52.556;13.430;2023-11-19T09:13:54;40.10;;;36.42;;
27293;SDS011;14785;52.556;13.430;2023-11-19T09:16:20;43.57;;;40.10;;
27293;SDS011;14785;52.556;13.430;2023-11-19T09:18:46;34.13;;;31.30;;
27293;SDS011;14785;52.556;13.430;2023-11-19T09:21:11;33.97;;;31.30;;
27293;SDS011;14785;52.556;13.430;2023-11-19T09:23:37;27.30;;;25.05;;
27293;SDS011;14785;52.556;13.430;2023-11-19T09:26:13;27.25;;;24.75;;
27293;SDS011;14785;52.556;13.430;2023-11-19T09:28:39;29.25;;;26.67;;
27293;SDS011;14785;52.556;13.430;2023-11-19T09:31:12;23.70;;;21.67;;
27293;SDS011;14785;52.556;13.430;2023-11-19T09:33:41;24.02;;;22.08;;
27293;SDS011;14785;52.556;13.430;2023-11-19T09:36:07;28.75;;;26.10;;
27293;SDS011;14785;52.556;13.430;2023-11-19T09:38:33;21.27;;;19.17;;
27293;SDS011;14785;52.556;13.430;2023-11-19T09:40:59;19.03;;;17.23;;
27293;SDS011;14785;52.556;13.430;2023-11-19T09:43:28;21.08;;;19.10;;
27293;SDS011;14785;52.556;13.430;2023-11-19T09:45:54;18.65;;;16.85;;
27293;SDS011;14785;52.556;13.430;2023-11-19T09:48:21;21.85;;;19.65;;
27293;SDS011;14785;52.556;13.430;2023-11-19T09:50:46;15.10;;;13.60;;
27293;SDS011;14785;52.556;13.430;2023-11-19T09:53:13;15.20;;;13.80;;
27293;SDS011;14785;52.556;13.430;2023-11-19T09:58:04;13.82;;;12.43;;
27293;SDS011;14785;52.556;13.430;2023-11-19T10:00:32;14.25;;;11.55;;
27293;SDS011;14785;52.556;13.430;2023-11-19T10:02:57;14.37;;;12.97;;
27293;SDS011;14785;52.556;13.430;2023-11-19T10:05:24;12.93;;;11.70;;
27293;SDS011;14785;52.556;13.430;2023-11-19T10:07:50;14.93;;;12.63;;
27293;SDS011;14785;52.556;13.430;2023-11-19T10:10:15;15.83;;;13.27;;
27293;SDS011;14785;52.556;13.430;2023-11-19T10:12:44;15.80;;;13.80;;
27293;SDS011;14785;52.556;13.430;2023-11-19T10:15:15;12.65;;;11.55;;
27293;SDS011;14785;52.556;13.430;2023-11-19T10:17:45;13.45;;;10.85;;
27293;SDS011;14785;52.556;13.430;2023-11-19T10:20:10;13.07;;;11.73;;
27293;SDS011;14785;52.556;13.430;2023-11-19T10:22:39;16.73;;;15.13;;
27293;SDS011;14785;52.556;13.430;2023-11-19T10:27:53;14.77;;;12.23;;
27293;SDS011;14785;52.556;13.430;2023-11-19T10:30:22;12.77;;;11.48;;
27293;SDS011;14785;52.556;13.430;2023-11-19T10:35:36;14.15;;;9.15;;
27293;SDS011;14785;52.556;13.430;2023-11-19T10:38:19;11.32;;;9.32;;
27293;SDS011;14785;52.556;13.430;2023-11-19T10:40:47;13.02;;;11.80;;
27293;SDS011;14785;52.556;13.430;2023-11-19T10:43:13;28.58;;;25.98;;
27293;SDS011;14785;52.556;13.430;2023-11-19T10:45:40;13.35;;;12.05;;
27293;SDS011;14785;52.556;13.430;2023-11-19T10:48:06;16.08;;;12.80;;
27293;SDS011;14785;52.556;13.430;2023-11-19T10:50:35;14.68;;;12.85;;
27293;SDS011;14785;52.556;13.430;2023-11-19T10:53:02;17.27;;;13.27;;
27293;SDS011;14785;52.556;13.430;2023-11-19T10:55:38;18.15;;;16.38;;
27293;SDS011;14785;52.556;13.430;2023-11-19T10:58:04;23.40;;;19.15;;
27293;SDS011;14785;52.556;13.430;2023-11-19T11:03:09;21.35;;;18.88;;
27293;SDS011;14785;52.556;13.430;2023-11-19T11:05:39;24.67;;;18.45;;
27293;SDS011;14785;52.556;13.430;2023-11-19T11:08:06;24.88;;;17.60;;
27293;SDS011;14785;52.556;13.430;2023-11-19T11:10:32;19.23;;;13.20;;
27293;SDS011;14785;52.556;13.430;2023-11-19T11:13:04;20.60;;;13.93;;
27293;SDS011;14785;52.556;13.430;2023-11-19T11:15:30;18.15;;;10.75;;
27293;SDS011;14785;52.556;13.430;2023-11-19T11:18:00;19.35;;;12.55;;
27293;SDS011;14785;52.556;13.430;2023-11-19T11:20:32;24.25;;;14.07;;
27293;SDS011;14785;52.556;13.430;2023-11-19T11:39:51;25.10;;;10.70;;
27293;SDS011;14785;52.556;13.430;2023-11-19T11:44:58;18.80;;;9.17;;
27293;SDS011;14785;52.556;13.430;2023-11-19T11:47:23;20.92;;;10.75;;
27293;SDS011;14785;52.556;13.430;2023-11-19T11:49:48;26.83;;;13.97;;
27293;SDS011;14785;52.556;13.430;2023-11-19T11:52:16;27.00;;;15.90;;
27293;SDS011;14785;52.556;13.430;2023-11-19T11:54:42;29.77;;;20.65;;
27293;SDS011;14785;52.556;13.430;2023-11-19T12:02:05;23.35;;;18.05;;
27293;SDS011;14785;52.556;13.430;2023-11-19T12:04:34;29.73;;;20.58;;
27293;SDS011;14785;52.556;13.430;2023-11-19T12:07:03;25.73;;;16.35;;
27293;SDS011;14785;52.556;13.430;2023-11-19T12:09:31;29.67;;;15.27;;
27293;SDS011;14785;52.556;13.430;2023-11-19T12:12:17;31.42;;;16.85;;
27293;SDS011;14785;52.556;13.430;2023-11-19T12:15:19;30.23;;;12.55;;
27293;SDS011;14785;52.556;13.430;2023-11-19T12:17:42;28.10;;;13.98;;
27293;SDS011;14785;52.556;13.430;2023-11-19T12:20:14;30.75;;;10.75;;
27293;SDS011;14785;52.556;13.430;2023-11-19T12:22:41;30.27;;;15.45;;
27293;SDS011;14785;52.556;13.430;2023-11-19T12:25:08;20.52;;;9.40;;
27293;SDS011;14785;52.556;13.430;2023-11-19T12:27:44;26.73;;;10.02;;
27293;SDS011;14785;52.556;13.430;2023-11-19T12:30:11;27.53;;;10.93;;
27293;SDS011;14785;52.556;13.430;2023-11-19T12:32:37;29.10;;;12.50;;
27293;SDS011;14785;52.556;13.430;2023-11-19T12:35:04;24.73;;;11.10;;
27293;SDS011;14785;52.556;13.430;2023-11-19T12:37:29;28.87;;;14.10;;
27293;SDS011;14785;52.556;13.430;2023-11-19T12:42:34;29.55;;;9.93;;
27293;SDS011;14785;52.556;13.430;2023-11-19T12:45:00;32.47;;;18.52;;
27293;SDS011;14785;52.556;13.430;2023-11-19T12:47:25;33.57;;;22.37;;
27293;SDS011;14785;52.556;13.430;2023-11-19T12:49:57;42.17;;;23.93;;
27293;SDS011;14785;52.556;13.430;2023-11-19T12:52:23;29.25;;;12.85;;
27293;SDS011;14785;52.556;13.430;2023-11-19T12:54:48;35.67;;;19.20;;
27293;SDS011;14785;52.556;13.430;2023-11-19T12:57:14;30.77;;;23.27;;
27293;SDS011;14785;52.556;13.430;2023-11-19T12:59:40;39.40;;;14.55;;
27293;SDS011;14785;52.556;13.430;2023-11-19T13:02:07;35.83;;;22.23;;
27293;SDS011;14785;52.556;13.430;2023-11-19T13:04:33;34.67;;;15.43;;
27293;SDS011;14785;52.556;13.430;2023-11-19T13:06:59;28.92;;;14.25;;
27293;SDS011;14785;52.556;13.430;2023-11-19T13:09:28;37.45;;;18.92;;
27293;SDS011;14785;52.556;13.430;2023-11-19T13:11:54;30.92;;;14.13;;
27293;SDS011;14785;52.556;13.430;2023-11-19T13:14:22;31.27;;;14.32;;
27293;SDS011;14785;52.556;13.430;2023-11-19T13:16:48;27.65;;;11.23;;
27293;SDS011;14785;52.556;13.430;2023-11-19T13:19:14;29.03;;;12.27;;
27293;SDS011;14785;52.556;13.430;2023-11-19T13:21:44;26.10;;;10.55;;
27293;SDS011;14785;52.556;13.430;2023-11-19T13:24:12;36.78;;;11.15;;
27293;SDS011;14785;52.556;13.430;2023-11-19T13:26:38;34.83;;;10.73;;
27293;SDS011;14785;52.556;13.430;2023-11-19T13:29:03;35.20;;;10.50;;
27293;SDS011;14785;52.556;13.430;2023-11-19T13:31:29;28.30;;;11.17;;
27293;SDS011;14785;52.556;13.430;2023-11-19T13:33:54;25.47;;;10.20;;
27293;SDS011;14785;52.556;13.430;2023-11-19T13:36:20;33.23;;;12.20;;
27293;SDS011;14785;52.556;13.430;2023-11-19T13:38:45;31.37;;;10.63;;
27293;SDS011;14785;52.556;13.430;2023-11-19T13:41:11;29.55;;;12.25;;
27293;SDS011;14785;52.556;13.430;2023-11-19T13:43:38;37.45;;;12.40;;
27293;SDS011;14785;52.556;13.430;2023-11-19T13:46:04;35.55;;;12.98;;
27293;SDS011;14785;52.556;13.430;2023-11-19T13:48:30;28.92;;;13.88;;
27293;SDS011;14785;52.556;13.430;2023-11-19T13:50:56;37.97;;;16.03;;
27293;SDS011;14785;52.556;13.430;2023-11-19T13:53:21;43.80;;;17.23;;
27293;SDS011;14785;52.556;13.430;2023-11-19T13:55:50;34.95;;;13.43;;
27293;SDS011;14785;52.556;13.430;2023-11-19T13:58:15;33.10;;;10.63;;
27293;SDS011;14785;52.556;13.430;2023-11-19T14:00:41;38.03;;;12.27;;
27293;SDS011;14785;52.556;13.430;2023-11-19T14:03:08;33.97;;;12.48;;
27293;SDS011;14785;52.556;13.430;2023-11-19T14:05:35;32.78;;;17.27;;
27293;SDS011;14785;52.556;13.430;2023-11-19T14:08:00;38.33;;;16.57;;
27293;SDS011;14785;52.556;13.430;2023-11-19T14:10:26;39.30;;;17.50;;
27293;SDS011;14785;52.556;13.430;2023-11-19T14:12:52;42.60;;;17.05;;
27293;SDS011;14785;52.556;13.430;2023-11-19T14:15:17;38.90;;;17.13;;
27293;SDS011;14785;52.556;13.430;2023-11-19T14:17:43;41.80;;;16.87;;
27293;SDS011;14785;52.556;13.430;2023-11-19T14:20:08;38.90;;;15.03;;
27293;SDS011;14785;52.556;13.430;2023-11-19T14:22:41;39.40;;;14.13;;
27293;SDS011;14785;52.556;13.430;2023-11-19T14:25:08;37.60;;;15.35;;
27293;SDS011;14785;52.556;13.430;2023-11-19T14:27:39;38.92;;;12.52;;
27293;SDS011;14785;52.556;13.430;2023-11-19T14:30:05;37.22;;;17.73;;
27293;SDS011;14785;52.556;13.430;2023-11-19T14:34:57;35.97;;;15.60;;
27293;SDS011;14785;52.556;13.430;2023-11-19T14:37:24;39.03;;;17.00;;
27293;SDS011;14785;52.556;13.430;2023-11-19T14:39:49;33.80;;;17.17;;
27293;SDS011;14785;52.556;13.430;2023-11-19T14:42:18;34.42;;;13.35;;
27293;SDS011;14785;52.556;13.430;2023-11-19T14:44:43;30.40;;;11.73;;
27293;SDS011;14785;52.556;13.430;2023-11-19T14:47:11;43.73;;;12.97;;
27293;SDS011;14785;52.556;13.430;2023-11-19T14:49:37;38.33;;;13.57;;
27293;SDS011;14785;52.556;13.430;2023-11-19T14:52:05;36.33;;;15.17;;